sensor_id;sensor_type;location;lat;lon;timestamp;temperature;humidity
7494;DHT22;3788;49.902;8.590;2023-11-22T00:00:20;6.10;97.50
7494;DHT22;3788;49.902;8.590;2023-11-22T00:02:47;6.00;97.40
7494;DHT22;3788;49.902;8.590;2023-11-22T00:05:14;6.00;97.40
7494;DHT22;3788;49.902;8.590;2023-11-22T00:07:40;5.90;97.00
7494;DHT22;3788;49.902;8.590;2023-11-22T00:10:09;5.90;96.70
7494;DHT22;3788;49.902;8.590;2023-11-22T00:12:35;5.90;96.80
7494;DHT22;3788;49.902;8.590;2023-11-22T00:15:04;5.80;96.90
7494;DHT22;3788;49.902;8.590;2023-11-22T00:17:32;5.80;97.10
7494;DHT22;3788;49.902;8.590;2023-11-22T00:19:59;5.80;97.10
7494;DHT22;3788;49.902;8.590;2023-11-22T00:22:26;5.80;96.90
7494;DHT22;3788;49.902;8.590;2023-11-22T00:24:53;5.80;97.00
7494;DHT22;3788;49.902;8.590;2023-11-22T00:27:21;5.80;97.30
7494;DHT22;3788;49.902;8.590;2023-11-22T00:29:47;5.80;96.90
7494;DHT22;3788;49.902;8.590;2023-11-22T00:32:14;5.80;97.00
7494;DHT22;3788;49.902;8.590;2023-11-22T00:34:41;5.80;97.00
7494;DHT22;3788;49.902;8.590;2023-11-22T00:37:07;5.80;96.90
7494;DHT22;3788;49.902;8.590;2023-11-22T00:39:34;5.80;97.00
7494;DHT22;3788;49.902;8.590;2023-11-22T00:42:01;5.80;97.00
7494;DHT22;3788;49.902;8.590;2023-11-22T00:44:30;5.70;96.90
7494;DHT22;3788;49.902;8.590;2023-11-22T00:46:57;5.70;96.90
7494;DHT22;3788;49.902;8.590;2023-11-22T00:49:24;5.70;96.80
7494;DHT22;3788;49.902;8.590;2023-11-22T00:51:50;5.60;97.00
7494;DHT22;3788;49.902;8.590;2023-11-22T00:54:17;5.60;97.20
7494;DHT22;3788;49.902;8.590;2023-11-22T00:56:45;5.50;97.30
7494;DHT22;3788;49.902;8.590;2023-11-22T00:59:12;5.40;97.60
7494;DHT22;3788;49.902;8.590;2023-11-22T01:01:40;5.40;97.90
7494;DHT22;3788;49.902;8.590;2023-11-22T01:04:07;5.40;98.10
7494;DHT22;3788;49.902;8.590;2023-11-22T01:06:34;5.30;98.40
7494;DHT22;3788;49.902;8.590;2023-11-22T01:09:02;5.20;98.70
7494;DHT22;3788;49.902;8.590;2023-11-22T01:11:30;5.20;99.10
7494;DHT22;3788;49.902;8.590;2023-11-22T01:13:56;5.20;99.40
7494;DHT22;3788;49.902;8.590;2023-11-22T01:16:23;5.20;99.70
7494;DHT22;3788;49.902;8.590;2023-11-22T01:18:51;5.10;99.90
7494;DHT22;3788;49.902;8.590;2023-11-22T01:21:18;5.10;99.90
7494;DHT22;3788;49.902;8.590;2023-11-22T01:23:45;5.10;99.90
7494;DHT22;3788;49.902;8.590;2023-11-22T01:26:12;5.00;99.90
7494;DHT22;3788;49.902;8.590;2023-11-22T01:28:39;5.00;99.90
7494;DHT22;3788;49.902;8.590;2023-11-22T01:31:11;4.90;99.90
7494;DHT22;3788;49.902;8.590;2023-11-22T01:33:38;4.90;99.90
7494;DHT22;3788;49.902;8.590;2023-11-22T01:36:07;4.80;99.90
7494;DHT22;3788;49.902;8.590;2023-11-22T01:38:34;4.80;99.90
7494;DHT22;3788;49.902;8.590;2023-11-22T01:41:01;4.80;99.90
7494;DHT22;3788;49.902;8.590;2023-11-22T01:43:27;4.80;99.90
7494;DHT22;3788;49.902;8.590;2023-11-22T01:45:54;4.80;99.90
7494;DHT22;3788;49.902;8.590;2023-11-22T01:48:21;4.70;99.90
7494;DHT22;3788;49.902;8.590;2023-11-22T01:50:48;4.70;99.90
7494;DHT22;3788;49.902;8.590;2023-11-22T01:53:17;4.70;99.90
7494;DHT22;3788;49.902;8.590;2023-11-22T01:55:47;4.70;99.90
7494;DHT22;3788;49.902;8.590;2023-11-22T01:58:14;4.70;99.90
7494;DHT22;3788;49.902;8.590;2023-11-22T02:00:45;4.70;99.90
7494;DHT22;3788;49.902;8.590;2023-11-22T02:03:12;4.70;99.90
7494;DHT22;3788;49.902;8.590;2023-11-22T02:05:40;4.60;99.90
7494;DHT22;3788;49.902;8.590;2023-11-22T02:08:09;4.60;99.90
7494;DHT22;3788;49.902;8.590;2023-11-22T02:10:37;4.60;99.90
7494;DHT22;3788;49.902;8.590;2023-11-22T02:13:03;4.60;99.90
7494;DHT22;3788;49.902;8.590;2023-11-22T02:15:32;4.60;99.90
7494;DHT22;3788;49.902;8.590;2023-11-22T02:17:59;4.60;99.90
7494;DHT22;3788;49.902;8.590;2023-11-22T02:20:26;4.60;99.90
7494;DHT22;3788;49.902;8.590;2023-11-22T02:22:53;4.60;99.90
7494;DHT22;3788;49.902;8.590;2023-11-22T02:25:22;4.50;99.90
7494;DHT22;3788;49.902;8.590;2023-11-22T02:27:49;4.50;99.90
7494;DHT22;3788;49.902;8.590;2023-11-22T02:30:16;4.50;99.90
7494;DHT22;3788;49.902;8.590;2023-11-22T02:32:43;4.50;99.90
7494;DHT22;3788;49.902;8.590;2023-11-22T02:35:10;4.40;99.90
7494;DHT22;3788;49.902;8.590;2023-11-22T02:37:37;4.40;99.90
7494;DHT22;3788;49.902;8.590;2023-11-22T02:40:05;4.40;99.90
7494;DHT22;3788;49.902;8.590;2023-11-22T02:42:35;4.40;99.90
7494;DHT22;3788;49.902;8.590;2023-11-22T02:45:01;4.40;99.90
7494;DHT22;3788;49.902;8.590;2023-11-22T02:47:30;4.30;99.90
7494;DHT22;3788;49.902;8.590;2023-11-22T02:49:57;4.30;99.90
7494;DHT22;3788;49.902;8.590;2023-11-22T02:52:24;4.30;99.90
7494;DHT22;3788;49.902;8.590;2023-11-22T02:54:52;4.30;99.90
7494;DHT22;3788;49.902;8.590;2023-11-22T02:57:18;4.20;99.90
7494;DHT22;3788;49.902;8.590;2023-11-22T02:59:46;4.20;99.90
7494;DHT22;3788;49.902;8.590;2023-11-22T03:02:13;4.20;99.90
7494;DHT22;3788;49.902;8.590;2023-11-22T03:04:42;4.10;99.90
7494;DHT22;3788;49.902;8.590;2023-11-22T03:07:08;4.10;99.90
7494;DHT22;3788;49.902;8.590;2023-11-22T03:09:35;4.20;99.90
7494;DHT22;3788;49.902;8.590;2023-11-22T03:12:03;4.10;99.90
7494;DHT22;3788;49.902;8.590;2023-11-22T03:14:29;4.10;99.90
7494;DHT22;3788;49.902;8.590;2023-11-22T03:16:57;4.10;99.90
7494;DHT22;3788;49.902;8.590;2023-11-22T03:19:24;4.10;99.90
7494;DHT22;3788;49.902;8.590;2023-11-22T03:21:50;4.20;99.90
7494;DHT22;3788;49.902;8.590;2023-11-22T03:24:17;4.10;99.90
7494;DHT22;3788;49.902;8.590;2023-11-22T03:26:44;4.10;99.90
7494;DHT22;3788;49.902;8.590;2023-11-22T03:29:11;4.10;99.90
7494;DHT22;3788;49.902;8.590;2023-11-22T03:31:37;4.10;99.90
7494;DHT22;3788;49.902;8.590;2023-11-22T03:34:06;4.10;99.90
7494;DHT22;3788;49.902;8.590;2023-11-22T03:36:33;4.20;99.90
7494;DHT22;3788;49.902;8.590;2023-11-22T03:38:59;4.10;99.90
7494;DHT22;3788;49.902;8.590;2023-11-22T03:41:26;4.10;99.90
7494;DHT22;3788;49.902;8.590;2023-11-22T03:43:53;4.10;99.90
7494;DHT22;3788;49.902;8.590;2023-11-22T03:46:19;4.00;99.90
7494;DHT22;3788;49.902;8.590;2023-11-22T03:48:46;4.00;99.90
7494;DHT22;3788;49.902;8.590;2023-11-22T03:51:14;4.00;99.90
7494;DHT22;3788;49.902;8.590;2023-11-22T03:53:41;4.00;99.90
7494;DHT22;3788;49.902;8.590;2023-11-22T03:56:08;4.00;99.90
7494;DHT22;3788;49.902;8.590;2023-11-22T03:58:34;4.00;99.90
7494;DHT22;3788;49.902;8.590;2023-11-22T04:01:02;4.00;99.90
7494;DHT22;3788;49.902;8.590;2023-11-22T04:03:29;3.90;99.90
7494;DHT22;3788;49.902;8.590;2023-11-22T04:05:55;3.90;99.90
7494;DHT22;3788;49.902;8.590;2023-11-22T04:08:23;3.90;99.90
7494;DHT22;3788;49.902;8.590;2023-11-22T04:10:51;3.90;99.90
7494;DHT22;3788;49.902;8.590;2023-11-22T04:13:18;3.90;99.90
7494;DHT22;3788;49.902;8.590;2023-11-22T04:18:12;3.90;99.90
7494;DHT22;3788;49.902;8.590;2023-11-22T04:20:39;3.90;99.90
7494;DHT22;3788;49.902;8.590;2023-11-22T04:23:06;3.80;99.90
7494;DHT22;3788;49.902;8.590;2023-11-22T04:25:37;3.80;99.90
7494;DHT22;3788;49.902;8.590;2023-11-22T04:28:04;3.80;99.90
7494;DHT22;3788;49.902;8.590;2023-11-22T04:30:34;3.80;99.90
7494;DHT22;3788;49.902;8.590;2023-11-22T04:33:00;3.80;99.90
7494;DHT22;3788;49.902;8.590;2023-11-22T04:35:28;3.80;99.90
7494;DHT22;3788;49.902;8.590;2023-11-22T04:37:55;3.80;99.90
7494;DHT22;3788;49.902;8.590;2023-11-22T04:40:21;3.70;99.90
7494;DHT22;3788;49.902;8.590;2023-11-22T04:42:49;3.70;99.90
7494;DHT22;3788;49.902;8.590;2023-11-22T04:45:16;3.70;99.90
7494;DHT22;3788;49.902;8.590;2023-11-22T04:47:42;3.70;99.90
7494;DHT22;3788;49.902;8.590;2023-11-22T04:50:10;3.70;99.90
7494;DHT22;3788;49.902;8.590;2023-11-22T04:52:37;3.70;99.90
7494;DHT22;3788;49.902;8.590;2023-11-22T04:55:05;3.60;99.90
7494;DHT22;3788;49.902;8.590;2023-11-22T04:57:33;3.60;99.90
7494;DHT22;3788;49.902;8.590;2023-11-22T05:00:01;3.60;99.90
7494;DHT22;3788;49.902;8.590;2023-11-22T05:02:30;3.50;99.90
7494;DHT22;3788;49.902;8.590;2023-11-22T05:04:57;3.50;99.90
7494;DHT22;3788;49.902;8.590;2023-11-22T05:07:23;3.50;99.90
7494;DHT22;3788;49.902;8.590;2023-11-22T05:09:50;3.40;99.90
7494;DHT22;3788;49.902;8.590;2023-11-22T05:12:17;3.40;99.90
7494;DHT22;3788;49.902;8.590;2023-11-22T05:14:43;3.40;99.90
7494;DHT22;3788;49.902;8.590;2023-11-22T05:17:12;3.30;99.90
7494;DHT22;3788;49.902;8.590;2023-11-22T05:19:39;3.30;99.90
7494;DHT22;3788;49.902;8.590;2023-11-22T05:22:06;3.30;99.90
7494;DHT22;3788;49.902;8.590;2023-11-22T05:24:33;3.30;99.90
7494;DHT22;3788;49.902;8.590;2023-11-22T05:27:00;3.30;99.90
7494;DHT22;3788;49.902;8.590;2023-11-22T05:29:27;3.30;99.90
7494;DHT22;3788;49.902;8.590;2023-11-22T05:31:54;3.30;99.90
7494;DHT22;3788;49.902;8.590;2023-11-22T05:34:22;3.30;99.90
7494;DHT22;3788;49.902;8.590;2023-11-22T05:36:49;3.30;99.90
7494;DHT22;3788;49.902;8.590;2023-11-22T05:39:16;3.30;99.90
7494;DHT22;3788;49.902;8.590;2023-11-22T05:41:43;3.30;99.90
7494;DHT22;3788;49.902;8.590;2023-11-22T05:44:09;3.20;99.90
7494;DHT22;3788;49.902;8.590;2023-11-22T05:46:36;3.20;99.90
7494;DHT22;3788;49.902;8.590;2023-11-22T05:49:04;3.20;99.90
7494;DHT22;3788;49.902;8.590;2023-11-22T05:51:32;3.20;99.90
7494;DHT22;3788;49.902;8.590;2023-11-22T05:53:59;3.20;99.90
7494;DHT22;3788;49.902;8.590;2023-11-22T05:56:26;3.20;99.90
7494;DHT22;3788;49.902;8.590;2023-11-22T05:58:52;3.30;99.90
7494;DHT22;3788;49.902;8.590;2023-11-22T06:01:19;3.30;99.90
7494;DHT22;3788;49.902;8.590;2023-11-22T06:03:46;3.30;99.90
7494;DHT22;3788;49.902;8.590;2023-11-22T06:06:14;3.30;99.90
7494;DHT22;3788;49.902;8.590;2023-11-22T06:08:42;3.30;99.90
7494;DHT22;3788;49.902;8.590;2023-11-22T06:11:08;3.30;99.90
7494;DHT22;3788;49.902;8.590;2023-11-22T06:13:35;3.30;99.90
7494;DHT22;3788;49.902;8.590;2023-11-22T06:16:02;3.20;99.90
7494;DHT22;3788;49.902;8.590;2023-11-22T06:18:29;3.20;99.90
7494;DHT22;3788;49.902;8.590;2023-11-22T06:20:56;3.20;99.90
7494;DHT22;3788;49.902;8.590;2023-11-22T06:23:23;3.20;99.90
7494;DHT22;3788;49.902;8.590;2023-11-22T06:25:51;3.20;99.90
7494;DHT22;3788;49.902;8.590;2023-11-22T06:28:17;3.20;99.90
7494;DHT22;3788;49.902;8.590;2023-11-22T06:30:44;3.20;99.90
7494;DHT22;3788;49.902;8.590;2023-11-22T06:33:11;3.20;99.90
7494;DHT22;3788;49.902;8.590;2023-11-22T06:35:37;3.10;99.90
7494;DHT22;3788;49.902;8.590;2023-11-22T06:38:04;3.20;99.90
7494;DHT22;3788;49.902;8.590;2023-11-22T06:40:30;3.20;99.90
7494;DHT22;3788;49.902;8.590;2023-11-22T06:42:58;3.20;99.90
7494;DHT22;3788;49.902;8.590;2023-11-22T06:45:25;3.10;99.90
7494;DHT22;3788;49.902;8.590;2023-11-22T06:47:52;3.10;99.90
7494;DHT22;3788;49.902;8.590;2023-11-22T06:50:18;3.10;99.90
7494;DHT22;3788;49.902;8.590;2023-11-22T06:52:46;3.00;99.90
7494;DHT22;3788;49.902;8.590;2023-11-22T06:55:15;3.00;99.90
7494;DHT22;3788;49.902;8.590;2023-11-22T06:57:42;3.00;99.90
7494;DHT22;3788;49.902;8.590;2023-11-22T07:00:11;3.00;99.90
7494;DHT22;3788;49.902;8.590;2023-11-22T07:02:39;2.90;99.90
7494;DHT22;3788;49.902;8.590;2023-11-22T07:05:06;2.90;99.90
7494;DHT22;3788;49.902;8.590;2023-11-22T07:07:34;2.90;99.90
7494;DHT22;3788;49.902;8.590;2023-11-22T07:10:01;2.90;99.90
7494;DHT22;3788;49.902;8.590;2023-11-22T07:12:28;2.90;99.90
7494;DHT22;3788;49.902;8.590;2023-11-22T07:14:55;2.90;99.90
7494;DHT22;3788;49.902;8.590;2023-11-22T07:17:23;2.90;99.90
7494;DHT22;3788;49.902;8.590;2023-11-22T07:19:53;2.90;99.90
7494;DHT22;3788;49.902;8.590;2023-11-22T07:22:20;3.00;99.90
7494;DHT22;3788;49.902;8.590;2023-11-22T07:24:48;3.00;99.90
7494;DHT22;3788;49.902;8.590;2023-11-22T07:27:16;3.00;99.90
7494;DHT22;3788;49.902;8.590;2023-11-22T07:29:44;3.00;99.90
7494;DHT22;3788;49.902;8.590;2023-11-22T07:32:12;3.10;99.90
7494;DHT22;3788;49.902;8.590;2023-11-22T07:34:40;3.10;99.90
7494;DHT22;3788;49.902;8.590;2023-11-22T07:37:07;3.10;99.90
7494;DHT22;3788;49.902;8.590;2023-11-22T07:39:34;3.20;99.90
7494;DHT22;3788;49.902;8.590;2023-11-22T07:42:01;3.20;99.90
7494;DHT22;3788;49.902;8.590;2023-11-22T07:44:27;3.20;99.70
7494;DHT22;3788;49.902;8.590;2023-11-22T07:46:58;3.30;99.60
7494;DHT22;3788;49.902;8.590;2023-11-22T07:49:25;3.30;99.10
7494;DHT22;3788;49.902;8.590;2023-11-22T07:51:53;3.30;99.20
7494;DHT22;3788;49.902;8.590;2023-11-22T07:54:20;3.40;99.10
7494;DHT22;3788;49.902;8.590;2023-11-22T07:56:54;3.40;98.80
7494;DHT22;3788;49.902;8.590;2023-11-22T07:59:20;3.40;98.40
7494;DHT22;3788;49.902;8.590;2023-11-22T08:01:47;3.40;98.50
7494;DHT22;3788;49.902;8.590;2023-11-22T08:04:14;3.50;98.50
7494;DHT22;3788;49.902;8.590;2023-11-22T08:06:44;3.50;98.50
7494;DHT22;3788;49.902;8.590;2023-11-22T08:09:12;3.60;98.60
7494;DHT22;3788;49.902;8.590;2023-11-22T08:11:41;3.60;98.70
7494;DHT22;3788;49.902;8.590;2023-11-22T08:14:08;3.60;98.40
7494;DHT22;3788;49.902;8.590;2023-11-22T08:16:35;3.70;98.50
7494;DHT22;3788;49.902;8.590;2023-11-22T08:19:04;3.60;98.50
7494;DHT22;3788;49.902;8.590;2023-11-22T08:21:31;3.70;98.40
7494;DHT22;3788;49.902;8.590;2023-11-22T08:23:58;3.70;98.30
7494;DHT22;3788;49.902;8.590;2023-11-22T08:26:26;3.70;98.30
7494;DHT22;3788;49.902;8.590;2023-11-22T08:28:53;3.70;98.40
7494;DHT22;3788;49.902;8.590;2023-11-22T08:31:20;3.80;98.30
7494;DHT22;3788;49.902;8.590;2023-11-22T08:33:47;3.80;97.90
7494;DHT22;3788;49.902;8.590;2023-11-22T08:36:14;3.70;97.60
7494;DHT22;3788;49.902;8.590;2023-11-22T08:38:40;3.70;97.10
7494;DHT22;3788;49.902;8.590;2023-11-22T08:41:09;3.70;97.30
7494;DHT22;3788;49.902;8.590;2023-11-22T08:43:40;3.70;97.40
7494;DHT22;3788;49.902;8.590;2023-11-22T08:46:07;3.80;97.40
7494;DHT22;3788;49.902;8.590;2023-11-22T08:48:34;3.80;96.90
7494;DHT22;3788;49.902;8.590;2023-11-22T08:51:01;3.80;97.00
7494;DHT22;3788;49.902;8.590;2023-11-22T08:53:29;3.90;97.10
7494;DHT22;3788;49.902;8.590;2023-11-22T08:55:56;4.00;97.00
7494;DHT22;3788;49.902;8.590;2023-11-22T08:58:23;4.00;96.80
7494;DHT22;3788;49.902;8.590;2023-11-22T09:00:51;4.10;96.90
7494;DHT22;3788;49.902;8.590;2023-11-22T09:03:19;4.10;97.00
7494;DHT22;3788;49.902;8.590;2023-11-22T09:05:45;4.10;97.00
7494;DHT22;3788;49.902;8.590;2023-11-22T09:08:12;4.10;96.70
7494;DHT22;3788;49.902;8.590;2023-11-22T09:10:40;4.10;96.50
7494;DHT22;3788;49.902;8.590;2023-11-22T09:13:08;4.10;96.10
7494;DHT22;3788;49.902;8.590;2023-11-22T09:15:35;4.10;95.20
7494;DHT22;3788;49.902;8.590;2023-11-22T09:18:03;4.10;94.60
7494;DHT22;3788;49.902;8.590;2023-11-22T09:20:30;4.10;94.00
7494;DHT22;3788;49.902;8.590;2023-11-22T09:22:56;4.20;94.10
7494;DHT22;3788;49.902;8.590;2023-11-22T09:25:25;4.20;94.60
7494;DHT22;3788;49.902;8.590;2023-11-22T09:27:55;4.30;94.90
7494;DHT22;3788;49.902;8.590;2023-11-22T09:30:25;4.30;95.00
7494;DHT22;3788;49.902;8.590;2023-11-22T09:33:00;4.30;95.20
7494;DHT22;3788;49.902;8.590;2023-11-22T09:35:29;4.40;95.40
7494;DHT22;3788;49.902;8.590;2023-11-22T09:37:56;4.40;95.50
7494;DHT22;3788;49.902;8.590;2023-11-22T09:40:23;4.50;95.50
7494;DHT22;3788;49.902;8.590;2023-11-22T09:42:50;4.50;95.40
7494;DHT22;3788;49.902;8.590;2023-11-22T09:45:19;4.60;95.40
7494;DHT22;3788;49.902;8.590;2023-11-22T09:47:46;4.60;94.70
7494;DHT22;3788;49.902;8.590;2023-11-22T09:50:19;4.50;94.50
7494;DHT22;3788;49.902;8.590;2023-11-22T09:52:50;4.50;94.60
7494;DHT22;3788;49.902;8.590;2023-11-22T09:55:20;4.50;94.30
7494;DHT22;3788;49.902;8.590;2023-11-22T09:57:47;4.60;94.40
7494;DHT22;3788;49.902;8.590;2023-11-22T10:00:16;4.60;94.20
7494;DHT22;3788;49.902;8.590;2023-11-22T10:02:44;4.60;94.20
7494;DHT22;3788;49.902;8.590;2023-11-22T10:05:11;4.60;93.70
7494;DHT22;3788;49.902;8.590;2023-11-22T10:07:37;4.60;93.60
7494;DHT22;3788;49.902;8.590;2023-11-22T10:10:06;4.60;93.80
7494;DHT22;3788;49.902;8.590;2023-11-22T10:12:36;4.60;93.60
7494;DHT22;3788;49.902;8.590;2023-11-22T10:15:12;4.60;93.00
7494;DHT22;3788;49.902;8.590;2023-11-22T10:17:39;4.60;93.20
7494;DHT22;3788;49.902;8.590;2023-11-22T10:20:07;4.70;93.10
7494;DHT22;3788;49.902;8.590;2023-11-22T10:22:44;4.60;93.00
7494;DHT22;3788;49.902;8.590;2023-11-22T10:25:14;4.70;93.10
7494;DHT22;3788;49.902;8.590;2023-11-22T10:27:44;4.80;93.10
7494;DHT22;3788;49.902;8.590;2023-11-22T10:30:12;4.80;92.80
7494;DHT22;3788;49.902;8.590;2023-11-22T10:32:41;4.80;92.70
7494;DHT22;3788;49.902;8.590;2023-11-22T10:35:08;4.80;92.50
7494;DHT22;3788;49.902;8.590;2023-11-22T10:37:35;4.80;92.40
7494;DHT22;3788;49.902;8.590;2023-11-22T10:40:02;4.80;92.40
7494;DHT22;3788;49.902;8.590;2023-11-22T10:42:33;4.80;92.40
7494;DHT22;3788;49.902;8.590;2023-11-22T10:45:00;4.80;92.30
7494;DHT22;3788;49.902;8.590;2023-11-22T10:47:29;4.80;92.10
7494;DHT22;3788;49.902;8.590;2023-11-22T10:49:57;4.70;92.20
7494;DHT22;3788;49.902;8.590;2023-11-22T10:52:27;4.70;92.20
7494;DHT22;3788;49.902;8.590;2023-11-22T10:55:01;4.70;92.20
7494;DHT22;3788;49.902;8.590;2023-11-22T10:57:33;4.70;92.30
7494;DHT22;3788;49.902;8.590;2023-11-22T11:00:04;4.70;92.00
7494;DHT22;3788;49.902;8.590;2023-11-22T11:02:36;4.70;91.90
7494;DHT22;3788;49.902;8.590;2023-11-22T11:05:10;4.70;91.90
7494;DHT22;3788;49.902;8.590;2023-11-22T11:07:48;4.70;91.60
7494;DHT22;3788;49.902;8.590;2023-11-22T11:10:15;4.60;91.60
7494;DHT22;3788;49.902;8.590;2023-11-22T11:12:44;4.60;91.50
7494;DHT22;3788;49.902;8.590;2023-11-22T11:15:11;4.60;91.50
7494;DHT22;3788;49.902;8.590;2023-11-22T11:17:38;4.70;91.60
7494;DHT22;3788;49.902;8.590;2023-11-22T11:20:06;4.70;91.40
7494;DHT22;3788;49.902;8.590;2023-11-22T11:22:32;4.70;91.30
7494;DHT22;3788;49.902;8.590;2023-11-22T11:25:01;4.80;91.30
7494;DHT22;3788;49.902;8.590;2023-11-22T11:27:33;4.80;91.20
7494;DHT22;3788;49.902;8.590;2023-11-22T11:30:02;4.80;90.80
7494;DHT22;3788;49.902;8.590;2023-11-22T11:32:50;4.80;90.70
7494;DHT22;3788;49.902;8.590;2023-11-22T11:35:17;4.80;90.60
7494;DHT22;3788;49.902;8.590;2023-11-22T11:37:46;4.80;90.50
7494;DHT22;3788;49.902;8.590;2023-11-22T11:40:26;4.80;90.40
7494;DHT22;3788;49.902;8.590;2023-11-22T11:42:54;4.80;89.70
7494;DHT22;3788;49.902;8.590;2023-11-22T11:45:22;4.80;90.00
7494;DHT22;3788;49.902;8.590;2023-11-22T11:47:49;4.80;90.20
7494;DHT22;3788;49.902;8.590;2023-11-22T11:50:16;4.70;90.20
7494;DHT22;3788;49.902;8.590;2023-11-22T11:52:43;4.70;90.30
7494;DHT22;3788;49.902;8.590;2023-11-22T11:55:10;4.70;90.50
7494;DHT22;3788;49.902;8.590;2023-11-22T11:57:36;4.80;90.60
7494;DHT22;3788;49.902;8.590;2023-11-22T12:00:04;4.90;90.70
7494;DHT22;3788;49.902;8.590;2023-11-22T12:02:33;4.90;90.70
7494;DHT22;3788;49.902;8.590;2023-11-22T12:05:00;4.90;90.60
7494;DHT22;3788;49.902;8.590;2023-11-22T12:07:34;5.00;90.60
7494;DHT22;3788;49.902;8.590;2023-11-22T12:10:00;5.00;90.60
7494;DHT22;3788;49.902;8.590;2023-11-22T12:12:27;5.00;90.50
7494;DHT22;3788;49.902;8.590;2023-11-22T12:14:55;5.00;90.40
7494;DHT22;3788;49.902;8.590;2023-11-22T12:17:22;4.90;90.30
7494;DHT22;3788;49.902;8.590;2023-11-22T12:19:50;4.90;90.40
7494;DHT22;3788;49.902;8.590;2023-11-22T12:22:17;4.90;90.30
7494;DHT22;3788;49.902;8.590;2023-11-22T12:24:43;5.00;90.80
7494;DHT22;3788;49.902;8.590;2023-11-22T12:27:10;4.90;90.30
7494;DHT22;3788;49.902;8.590;2023-11-22T12:29:37;4.90;89.80
7494;DHT22;3788;49.902;8.590;2023-11-22T12:32:07;4.90;89.40
7494;DHT22;3788;49.902;8.590;2023-11-22T12:34:34;4.90;90.00
7494;DHT22;3788;49.902;8.590;2023-11-22T12:37:02;5.00;90.00
7494;DHT22;3788;49.902;8.590;2023-11-22T12:39:29;5.10;90.20
7494;DHT22;3788;49.902;8.590;2023-11-22T12:41:57;5.10;88.80
7494;DHT22;3788;49.902;8.590;2023-11-22T12:44:24;5.10;88.50
7494;DHT22;3788;49.902;8.590;2023-11-22T12:46:52;5.00;89.00
7494;DHT22;3788;49.902;8.590;2023-11-22T12:49:22;5.10;89.40
7494;DHT22;3788;49.902;8.590;2023-11-22T12:51:50;5.00;89.00
7494;DHT22;3788;49.902;8.590;2023-11-22T12:54:18;5.10;89.70
7494;DHT22;3788;49.902;8.590;2023-11-22T12:56:48;5.00;89.60
7494;DHT22;3788;49.902;8.590;2023-11-22T12:59:15;5.00;89.50
7494;DHT22;3788;49.902;8.590;2023-11-22T13:01:43;4.80;87.20
7494;DHT22;3788;49.902;8.590;2023-11-22T13:04:10;4.80;88.10
7494;DHT22;3788;49.902;8.590;2023-11-22T13:06:37;4.80;88.70
7494;DHT22;3788;49.902;8.590;2023-11-22T13:09:04;4.90;89.10
7494;DHT22;3788;49.902;8.590;2023-11-22T13:11:33;4.90;89.40
7494;DHT22;3788;49.902;8.590;2023-11-22T13:14:00;5.00;89.70
7494;DHT22;3788;49.902;8.590;2023-11-22T13:16:26;5.00;89.80
7494;DHT22;3788;49.902;8.590;2023-11-22T13:18:53;5.10;89.80
7494;DHT22;3788;49.902;8.590;2023-11-22T13:21:20;5.20;90.00
7494;DHT22;3788;49.902;8.590;2023-11-22T13:23:47;5.30;90.30
7494;DHT22;3788;49.902;8.590;2023-11-22T13:26:14;5.40;90.00
7494;DHT22;3788;49.902;8.590;2023-11-22T13:28:42;5.40;89.90
7494;DHT22;3788;49.902;8.590;2023-11-22T13:31:08;5.40;89.20
7494;DHT22;3788;49.902;8.590;2023-11-22T13:33:37;5.40;89.10
7494;DHT22;3788;49.902;8.590;2023-11-22T13:36:05;5.40;89.10
7494;DHT22;3788;49.902;8.590;2023-11-22T13:38:33;5.30;89.10
7494;DHT22;3788;49.902;8.590;2023-11-22T13:40:59;5.30;88.50
7494;DHT22;3788;49.902;8.590;2023-11-22T13:43:27;5.20;88.10
7494;DHT22;3788;49.902;8.590;2023-11-22T13:45:55;5.20;88.50
7494;DHT22;3788;49.902;8.590;2023-11-22T13:48:21;5.20;88.50
7494;DHT22;3788;49.902;8.590;2023-11-22T13:50:49;5.20;88.60
7494;DHT22;3788;49.902;8.590;2023-11-22T13:53:16;5.20;88.70
7494;DHT22;3788;49.902;8.590;2023-11-22T13:55:47;5.20;88.80
7494;DHT22;3788;49.902;8.590;2023-11-22T13:58:15;5.30;88.90
7494;DHT22;3788;49.902;8.590;2023-11-22T14:00:42;5.40;89.00
7494;DHT22;3788;49.902;8.590;2023-11-22T14:03:10;5.50;88.80
7494;DHT22;3788;49.902;8.590;2023-11-22T14:05:38;5.50;88.70
7494;DHT22;3788;49.902;8.590;2023-11-22T14:08:05;5.50;88.60
7494;DHT22;3788;49.902;8.590;2023-11-22T14:10:32;5.60;88.70
7494;DHT22;3788;49.902;8.590;2023-11-22T14:12:59;5.50;88.50
7494;DHT22;3788;49.902;8.590;2023-11-22T14:15:27;5.50;88.30
7494;DHT22;3788;49.902;8.590;2023-11-22T14:17:54;5.50;88.50
7494;DHT22;3788;49.902;8.590;2023-11-22T14:20:22;5.40;88.40
7494;DHT22;3788;49.902;8.590;2023-11-22T14:22:49;5.40;88.50
7494;DHT22;3788;49.902;8.590;2023-11-22T14:25:16;5.40;88.40
7494;DHT22;3788;49.902;8.590;2023-11-22T14:27:44;5.30;88.40
7494;DHT22;3788;49.902;8.590;2023-11-22T14:30:12;5.30;88.60
7494;DHT22;3788;49.902;8.590;2023-11-22T14:32:42;5.30;88.60
7494;DHT22;3788;49.902;8.590;2023-11-22T14:35:10;5.40;88.80
7494;DHT22;3788;49.902;8.590;2023-11-22T14:37:38;5.40;88.70
7494;DHT22;3788;49.902;8.590;2023-11-22T14:40:07;5.40;88.60
7494;DHT22;3788;49.902;8.590;2023-11-22T14:42:39;5.40;88.70
7494;DHT22;3788;49.902;8.590;2023-11-22T14:45:07;5.50;88.70
7494;DHT22;3788;49.902;8.590;2023-11-22T14:47:34;5.50;88.70
7494;DHT22;3788;49.902;8.590;2023-11-22T14:50:02;5.50;88.70
7494;DHT22;3788;49.902;8.590;2023-11-22T14:52:30;5.50;88.60
7494;DHT22;3788;49.902;8.590;2023-11-22T14:54:59;5.40;88.60
7494;DHT22;3788;49.902;8.590;2023-11-22T14:57:26;5.30;88.60
7494;DHT22;3788;49.902;8.590;2023-11-22T14:59:53;5.30;88.40
7494;DHT22;3788;49.902;8.590;2023-11-22T15:02:20;5.20;88.40
7494;DHT22;3788;49.902;8.590;2023-11-22T15:04:47;5.10;88.50
7494;DHT22;3788;49.902;8.590;2023-11-22T15:07:13;5.00;88.80
7494;DHT22;3788;49.902;8.590;2023-11-22T15:09:40;5.00;88.90
7494;DHT22;3788;49.902;8.590;2023-11-22T15:12:08;4.90;88.90
7494;DHT22;3788;49.902;8.590;2023-11-22T15:14:35;4.80;89.20
7494;DHT22;3788;49.902;8.590;2023-11-22T15:17:02;4.70;89.50
7494;DHT22;3788;49.902;8.590;2023-11-22T15:19:30;4.70;89.80
7494;DHT22;3788;49.902;8.590;2023-11-22T15:21:56;4.60;89.90
7494;DHT22;3788;49.902;8.590;2023-11-22T15:24:24;4.50;90.00
7494;DHT22;3788;49.902;8.590;2023-11-22T15:26:51;4.50;90.10
7494;DHT22;3788;49.902;8.590;2023-11-22T15:29:19;4.50;90.10
7494;DHT22;3788;49.902;8.590;2023-11-22T15:31:46;4.40;90.10
7494;DHT22;3788;49.902;8.590;2023-11-22T15:34:13;4.40;90.20
7494;DHT22;3788;49.902;8.590;2023-11-22T15:36:40;4.30;90.20
7494;DHT22;3788;49.902;8.590;2023-11-22T15:39:07;4.30;90.30
7494;DHT22;3788;49.902;8.590;2023-11-22T15:41:37;4.30;90.40
7494;DHT22;3788;49.902;8.590;2023-11-22T15:44:04;4.30;90.60
7494;DHT22;3788;49.902;8.590;2023-11-22T15:46:32;4.30;90.70
7494;DHT22;3788;49.902;8.590;2023-11-22T15:48:59;4.20;90.70
7494;DHT22;3788;49.902;8.590;2023-11-22T15:51:26;4.20;90.80
7494;DHT22;3788;49.902;8.590;2023-11-22T15:53:53;4.20;90.90
7494;DHT22;3788;49.902;8.590;2023-11-22T15:56:19;4.20;91.00
7494;DHT22;3788;49.902;8.590;2023-11-22T15:58:46;4.20;91.00
7494;DHT22;3788;49.902;8.590;2023-11-22T16:01:13;4.20;91.10
7494;DHT22;3788;49.902;8.590;2023-11-22T16:03:41;4.20;91.20
7494;DHT22;3788;49.902;8.590;2023-11-22T16:06:07;4.20;91.20
7494;DHT22;3788;49.902;8.590;2023-11-22T16:08:35;4.30;91.20
7494;DHT22;3788;49.902;8.590;2023-11-22T16:11:01;4.30;91.30
7494;DHT22;3788;49.902;8.590;2023-11-22T16:13:28;4.30;91.40
7494;DHT22;3788;49.902;8.590;2023-11-22T16:15:55;4.30;91.40
7494;DHT22;3788;49.902;8.590;2023-11-22T16:18:24;4.30;91.40
7494;DHT22;3788;49.902;8.590;2023-11-22T16:20:54;4.30;91.40